Decoded Metar for KRWI (ROCKY MOUNT in NC, USA) (IATA:RWI) | Meteo·Mobile Aviation Weather
aviador You're here:

KRWI Decoded Metar

ROCKY MOUNT in NC, USA
Report Time2018-12-16 11:08:00
UTC Time2018-12-16 11:35:58
Flight Rules vfr VFR
Wind230° at 08 kt
W.Decomp.*RWY 22: 7.6 kt HW 2.6 kt RCW
W.Rank230° ranks 13
Current wind is above 230° avg. (6.9)
Visibility9999 m
Phenomena:N/A
Clouds:Few 003 Hf
Scattered 011 Hf
Scattered 016 Hf
CeilingNone
Temp09°C (ISA -6)
Dew Point09°C (100% RH)
AAT5.9°C
QNH1013 hPa
Density Alt-374 ft
Elevation154 ft
Report Wrong Elevation
Raw Report
KRWI 161108Z AUTO 23008KT 7SM FEW003 SCT011 SCT016 09/09 A2990 RMK
AO2 T00890089=

Extra information for KRWI:More info

Metar Taf Metar & Taf Last 4 Metars F.Rules Stats Wind Profile Meteogram Temp Stats Airport Information Weather charts Add Link Nearby VenuesMetar ALERT Operation Metar Decoded Social comments

AIRNAV info for KRWI